TimeMST,TemperatureF,Dew PointF,Humidity,Sea Level PressureIn,VisibilityMPH,Wind Direction,Wind SpeedMPH,Gust SpeedMPH,PrecipitationIn,Events,Conditions,WindDirDegrees,DateUTC
12:15 AM,46.4,24.8,43,30.38,10.0,SW,5.8,-,N/A,,Clear,230,2013-05-12 07:15:00
12:35 AM,48.2,24.8,40,30.37,10.0,SW,5.8,-,N/A,,Clear,230,2013-05-12 07:35:00
12:55 AM,46.4,24.8,43,30.38,10.0,SW,6.9,-,N/A,,Clear,220,2013-05-12 07:55:00
1:15 AM,46.4,24.8,43,30.38,10.0,SSW,6.9,-,N/A,,Clear,210,2013-05-12 08:15:00
1:35 AM,46.4,24.8,43,30.38,10.0,SSW,6.9,-,N/A,,Clear,200,2013-05-12 08:35:00
1:55 AM,46.4,24.8,43,30.38,10.0,SSE,5.8,-,N/A,,Clear,160,2013-05-12 08:55:00
2:15 AM,46.4,24.8,43,30.38,10.0,South,4.6,-,N/A,,Clear,170,2013-05-12 09:15:00
2:35 AM,42.8,23.0,46,30.38,10.0,South,5.8,-,N/A,,Clear,180,2013-05-12 09:35:00
2:55 AM,44.6,23.0,43,30.38,10.0,South,4.6,-,N/A,,Clear,170,2013-05-12 09:55:00
3:15 AM,44.6,23.0,43,30.38,10.0,South,6.9,-,N/A,,Clear,180,2013-05-12 10:15:00
3:35 AM,44.6,23.0,43,30.38,10.0,South,6.9,-,N/A,,Clear,180,2013-05-12 10:35:00
3:55 AM,42.8,24.8,49,30.38,10.0,South,6.9,-,N/A,,Clear,170,2013-05-12 10:55:00
4:15 AM,44.6,24.8,46,30.38,10.0,South,4.6,-,N/A,,Clear,190,2013-05-12 11:15:00
4:35 AM,42.8,24.8,49,30.38,10.0,South,8.1,-,N/A,,Clear,180,2013-05-12 11:35:00
4:55 AM,44.6,24.8,46,30.38,10.0,South,5.8,-,N/A,,Clear,190,2013-05-12 11:55:00
5:15 AM,42.8,24.8,49,30.38,10.0,South,6.9,-,N/A,,Clear,190,2013-05-12 12:15:00
5:35 AM,44.6,24.8,46,30.38,10.0,South,5.8,-,N/A,,Clear,190,2013-05-12 12:35:00
5:55 AM,44.6,24.8,46,30.39,10.0,SSW,3.5,-,N/A,,Clear,210,2013-05-12 12:55:00
6:15 AM,46.4,24.8,43,30.39,10.0,South,6.9,-,N/A,,Clear,170,2013-05-12 13:15:00
6:35 AM,50.0,26.6,40,30.40,10.0,South,6.9,-,N/A,,Clear,170,2013-05-12 13:35:00
6:55 AM,55.4,26.6,33,30.40,10.0,South,6.9,-,N/A,,Clear,190,2013-05-12 13:55:00
7:15 AM,55.4,28.4,36,30.40,10.0,South,6.9,-,N/A,,Clear,190,2013-05-12 14:15:00
7:35 AM,57.2,28.4,33,30.40,10.0,South,8.1,-,N/A,,Clear,180,2013-05-12 14:35:00
7:55 AM,59.0,28.4,31,30.40,10.0,SSW,8.1,-,N/A,,Clear,210,2013-05-12 14:55:00
8:15 AM,59.0,28.4,31,30.41,10.0,SW,8.1,-,N/A,,Clear,230,2013-05-12 15:15:00
8:35 AM,60.8,28.4,29,30.41,10.0,SSW,5.8,-,N/A,,Clear,210,2013-05-12 15:35:00
8:55 AM,62.6,28.4,27,30.40,10.0,Calm,Calm,-,N/A,,Clear,0,2013-05-12 15:55:00
9:15 AM,62.6,26.6,26,30.40,10.0,Calm,Calm,-,N/A,,Clear,0,2013-05-12 16:15:00
9:35 AM,62.6,26.6,26,30.40,10.0,NE,3.5,-,N/A,,Clear,50,2013-05-12 16:35:00
9:55 AM,64.4,26.6,24,30.39,10.0,NNW,4.6,-,N/A,,Clear,340,2013-05-12 16:55:00
10:15 AM,64.4,26.6,24,30.39,10.0,North,11.5,-,N/A,,Clear,350,2013-05-12 17:15:00
10:35 AM,66.2,24.8,21,30.38,10.0,North,9.2,-,N/A,,Scattered Clouds,360,2013-05-12 17:35:00
10:55 AM,66.2,24.8,21,30.37,10.0,North,6.9,16.1,N/A,,Scattered Clouds,360,2013-05-12 17:55:00
11:15 AM,68.0,23.0,18,30.37,10.0,NE,6.9,20.7,N/A,,Partly Cloudy,40,2013-05-12 18:15:00
11:35 AM,68.0,23.0,18,30.36,10.0,NNE,11.5,20.7,N/A,,Clear,20,2013-05-12 18:35:00
11:55 AM,69.8,23.0,17,30.35,10.0,North,12.7,18.4,N/A,,Partly Cloudy,10,2013-05-12 18:55:00
12:15 PM,68.0,21.2,17,30.35,10.0,North,10.4,-,N/A,,Partly Cloudy,10,2013-05-12 19:15:00
12:35 PM,68.0,23.0,18,30.34,10.0,NNE,9.2,20.7,N/A,,Partly Cloudy,30,2013-05-12 19:35:00
12:55 PM,71.6,21.2,15,30.34,10.0,East,11.5,-,N/A,,Partly Cloudy,100,2013-05-12 19:55:00
1:15 PM,71.6,19.4,14,30.34,10.0,ENE,10.4,19.6,N/A,,Partly Cloudy,60,2013-05-12 20:15:00
1:35 PM,71.6,19.4,14,30.33,10.0,NNE,3.5,18.4,N/A,,Partly Cloudy,20,2013-05-12 20:35:00
1:55 PM,71.6,19.4,14,30.32,10.0,NE,10.4,18.4,N/A,,Partly Cloudy,40,2013-05-12 20:55:00
2:15 PM,71.6,19.4,14,30.31,10.0,East,5.8,23.0,N/A,,Partly Cloudy,90,2013-05-12 21:15:00
2:35 PM,73.4,19.4,13,30.30,10.0,East,12.7,-,N/A,,Clear,100,2013-05-12 21:35:00
2:55 PM,71.6,19.4,14,30.29,10.0,NE,17.3,21.9,N/A,,Scattered Clouds,40,2013-05-12 21:55:00
3:15 PM,69.8,23.0,17,30.29,10.0,East,19.6,32.2,N/A,,Mostly Cloudy,100,2013-05-12 22:15:00
3:35 PM,68.0,24.8,20,30.29,10.0,East,15.0,24.2,N/A,,Mostly Cloudy,90,2013-05-12 22:35:00
3:55 PM,71.6,24.8,17,30.29,10.0,ESE,9.2,24.2,N/A,,Scattered Clouds,120,2013-05-12 22:55:00
4:15 PM,71.6,24.8,17,30.28,10.0,ENE,9.2,-,N/A,,Partly Cloudy,70,2013-05-12 23:15:00
4:35 PM,71.6,24.8,17,30.28,10.0,North,8.1,-,N/A,,Scattered Clouds,360,2013-05-12 23:35:00
4:55 PM,71.6,24.8,17,30.27,10.0,North,9.2,-,N/A,,Scattered Clouds,350,2013-05-12 23:55:00
5:15 PM,69.8,24.8,18,30.27,10.0,NNE,8.1,-,N/A,,Partly Cloudy,20,2013-05-13 00:15:00
5:35 PM,69.8,23.0,17,30.27,10.0,NNE,6.9,-,N/A,,Clear,20,2013-05-13 00:35:00
5:55 PM,68.0,24.8,20,30.27,10.0,ENE,4.6,-,N/A,,Scattered Clouds,70,2013-05-13 00:55:00
6:15 PM,68.0,24.8,20,30.27,10.0,ENE,5.8,-,N/A,,Scattered Clouds,60,2013-05-13 01:15:00
6:35 PM,66.2,23.0,19,30.27,10.0,NE,3.5,-,N/A,,Clear,50,2013-05-13 01:35:00
6:55 PM,66.2,23.0,19,30.27,10.0,NE,3.5,-,N/A,,Clear,50,2013-05-13 01:55:00
7:15 PM,64.4,24.8,22,30.28,10.0,Calm,Calm,-,N/A,,Clear,0,2013-05-13 02:15:00
7:35 PM,62.6,24.8,24,30.28,10.0,Calm,Calm,-,N/A,,Clear,0,2013-05-13 02:35:00
7:55 PM,59.0,24.8,27,30.29,10.0,Calm,Calm,-,N/A,,Scattered Clouds,0,2013-05-13 02:55:00
8:15 PM,57.2,24.8,29,30.29,10.0,South,3.5,-,N/A,,Mostly Cloudy,190,2013-05-13 03:15:00
8:35 PM,59.0,24.8,27,30.30,10.0,South,3.5,-,N/A,,Partly Cloudy,190,2013-05-13 03:35:00
8:55 PM,55.4,24.8,31,30.30,10.0,South,4.6,-,N/A,,Partly Cloudy,170,2013-05-13 03:55:00
9:15 PM,53.6,24.8,33,30.31,10.0,South,5.8,-,N/A,,Partly Cloudy,180,2013-05-13 04:15:00
9:35 PM,53.6,24.8,33,30.31,10.0,South,8.1,-,N/A,,Partly Cloudy,190,2013-05-13 04:35:00
9:55 PM,55.4,26.6,33,30.32,10.0,South,10.4,-,N/A,,Scattered Clouds,180,2013-05-13 04:55:00
10:15 PM,55.4,26.6,33,30.32,10.0,South,9.2,-,N/A,,Scattered Clouds,180,2013-05-13 05:15:00
10:35 PM,55.4,28.4,36,30.32,10.0,South,8.1,-,N/A,,Clear,180,2013-05-13 05:35:00
10:55 PM,55.4,28.4,36,30.32,10.0,South,9.2,-,N/A,,Partly Cloudy,180,2013-05-13 05:55:00
11:15 PM,55.4,28.4,36,30.32,10.0,South,10.4,-,N/A,,Clear,180,2013-05-13 06:15:00
11:35 PM,53.6,28.4,38,30.32,10.0,South,10.4,-,N/A,,Clear,180,2013-05-13 06:35:00
11:55 PM,53.6,28.4,38,30.32,10.0,South,9.2,-,N/A,,Clear,180,2013-05-13 06:55:00